createdAt,value
2019-02-21T00:00:06.050Z,11.57
2019-02-21T00:02:34.587Z,12.63
2019-02-21T00:05:03.521Z,10.27
2019-02-21T00:07:32.543Z,11.33
2019-02-21T00:10:00.999Z,11.00
2019-02-21T00:12:29.493Z,11.97
2019-02-21T00:14:57.951Z,11.17
2019-02-21T00:17:26.438Z,13.00
2019-02-21T00:19:55.145Z,15.30
2019-02-21T00:22:23.640Z,13.10
2019-02-21T00:24:52.109Z,12.90
2019-02-21T00:27:20.587Z,11.53
2019-02-21T00:29:49.059Z,11.53
2019-02-21T00:32:17.593Z,10.57
2019-02-21T00:34:46.127Z,11.77
2019-02-21T00:37:14.612Z,13.80
2019-02-21T00:39:43.087Z,11.47
2019-02-21T00:42:11.664Z,12.97
2019-02-21T00:44:40.136Z,14.23
2019-02-21T00:47:08.596Z,10.77
2019-02-21T00:49:37.077Z,14.20
2019-02-21T00:52:05.534Z,12.70
2019-02-21T00:54:34.020Z,12.70
2019-02-21T00:57:02.555Z,13.10
2019-02-21T00:59:31.040Z,13.00
2019-02-21T01:01:59.568Z,12.23
2019-02-21T01:04:28.118Z,14.13
2019-02-21T01:06:56.649Z,12.10
2019-02-21T01:09:25.374Z,12.07
2019-02-21T01:11:53.844Z,12.20
2019-02-21T01:14:22.387Z,13.90
2019-02-21T01:16:50.846Z,10.47
2019-02-21T01:19:19.332Z,12.80
2019-02-21T01:21:47.820Z,11.47
2019-02-21T01:24:16.274Z,10.93
2019-02-21T01:26:44.770Z,11.40
2019-02-21T01:29:13.282Z,13.43
2019-02-21T01:31:41.763Z,10.73
2019-02-21T01:34:10.435Z,14.60
2019-02-21T01:36:38.940Z,11.63
2019-02-21T01:39:07.566Z,14.40
2019-02-21T01:41:36.052Z,10.70
2019-02-21T01:44:04.760Z,11.53
2019-02-21T01:46:33.355Z,11.00
2019-02-21T01:49:01.819Z,12.27
2019-02-21T01:51:30.305Z,12.37
2019-02-21T01:53:58.849Z,12.13
2019-02-21T01:56:27.354Z,11.10
2019-02-21T01:58:55.813Z,12.93
2019-02-21T02:01:24.278Z,13.37
2019-02-21T02:03:52.832Z,11.90
2019-02-21T02:06:21.292Z,12.17
2019-02-21T02:08:49.783Z,11.60
2019-02-21T02:11:18.241Z,10.43
2019-02-21T02:13:46.778Z,11.27
2019-02-21T02:16:15.250Z,13.53
2019-02-21T02:18:43.717Z,11.73
2019-02-21T02:21:12.912Z,13.17
2019-02-21T02:23:41.384Z,11.63
2019-02-21T02:26:09.842Z,11.47
2019-02-21T02:28:38.320Z,11.20
2019-02-21T02:31:07.031Z,10.33
2019-02-21T02:33:35.583Z,12.53
2019-02-21T02:36:04.102Z,11.10
2019-02-21T02:38:32.552Z,9.83
2019-02-21T02:41:01.035Z,11.90
2019-02-21T02:43:29.499Z,12.43
2019-02-21T02:45:57.980Z,11.43
2019-02-21T02:48:26.501Z,11.47
2019-02-21T02:50:54.964Z,10.13
2019-02-21T02:56:51.458Z,10.37
2019-02-21T03:02:54.558Z,12.07
2019-02-21T03:05:23.106Z,12.97
2019-02-21T03:07:51.568Z,12.63
2019-02-21T03:10:20.047Z,11.37
2019-02-21T03:12:48.505Z,10.07
2019-02-21T03:15:17.075Z,12.70
2019-02-21T03:17:45.572Z,11.40
2019-02-21T03:20:14.045Z,15.83
2019-02-21T03:22:42.529Z,13.53
2019-02-21T03:25:11.152Z,12.83
2019-02-21T03:27:39.728Z,13.07
2019-02-21T03:30:12.268Z,11.30
2019-02-21T03:32:40.426Z,11.43
2019-02-21T03:35:09.162Z,14.37
2019-02-21T03:37:37.749Z,13.13
2019-02-21T03:40:08.634Z,10.90
2019-02-21T03:42:37.277Z,10.80
2019-02-21T03:45:09.134Z,14.07
2019-02-21T03:47:37.682Z,11.27
2019-02-21T03:50:08.777Z,11.00
2019-02-21T03:52:37.329Z,10.77
2019-02-21T03:55:07.036Z,11.27
2019-02-21T03:57:35.581Z,11.03
2019-02-21T04:00:06.266Z,10.30
2019-02-21T04:02:34.813Z,10.20
2019-02-21T04:05:03.482Z,10.57
2019-02-21T04:07:32.007Z,10.93
2019-02-21T04:10:00.519Z,11.13
2019-02-21T04:12:29.033Z,12.20
2019-02-21T04:14:57.517Z,11.17
2019-02-21T04:17:25.986Z,11.30
2019-02-21T04:19:54.570Z,12.47
2019-02-21T04:22:23.132Z,12.57
2019-02-21T04:24:51.706Z,12.50
2019-02-21T04:27:20.183Z,10.03
2019-02-21T04:29:48.919Z,11.70
2019-02-21T04:32:17.466Z,10.53
2019-02-21T04:34:46.001Z,9.67
2019-02-21T04:37:14.565Z,11.37
2019-02-21T04:39:43.105Z,10.37
2019-02-21T04:42:11.607Z,9.60
2019-02-21T04:44:40.127Z,11.80
2019-02-21T04:47:10.265Z,10.30
2019-02-21T04:49:38.794Z,11.23
2019-02-21T04:52:07.300Z,11.57
2019-02-21T04:54:35.830Z,10.00
2019-02-21T04:57:04.336Z,12.47
2019-02-21T04:59:32.894Z,10.80
2019-02-21T05:02:01.464Z,12.00
2019-02-21T05:04:30.086Z,11.17
2019-02-21T05:06:58.663Z,12.30
2019-02-21T05:09:27.476Z,11.07
2019-02-21T05:11:56.092Z,12.27
2019-02-21T05:14:24.655Z,12.30
2019-02-21T05:16:53.212Z,13.30
2019-02-21T05:19:21.705Z,13.37
2019-02-21T05:21:50.165Z,10.07
2019-02-21T05:24:18.670Z,11.90
2019-02-21T05:26:48.845Z,12.47
2019-02-21T05:29:17.353Z,11.97
2019-02-21T05:31:53.361Z,10.50
2019-02-21T05:34:29.346Z,10.63
2019-02-21T05:37:02.215Z,11.97
2019-02-21T05:39:38.106Z,12.23
2019-02-21T05:42:11.258Z,13.03
2019-02-21T05:44:59.503Z,10.47
2019-02-21T05:47:37.808Z,12.43
2019-02-21T05:50:11.674Z,11.40
2019-02-21T05:52:50.808Z,14.40
2019-02-21T05:55:26.437Z,11.33
2019-02-21T05:58:08.279Z,11.53
2019-02-21T06:00:38.404Z,12.63
2019-02-21T06:03:08.602Z,11.50
2019-02-21T06:05:38.890Z,10.93
2019-02-21T06:08:23.927Z,11.50
2019-02-21T06:11:00.006Z,13.00
2019-02-21T06:13:30.179Z,12.33
2019-02-21T06:16:03.038Z,12.17
2019-02-21T06:18:36.154Z,12.07
2019-02-21T06:21:06.294Z,10.70
2019-02-21T06:23:39.480Z,10.40
2019-02-21T06:26:15.400Z,12.67
2019-02-21T06:28:48.238Z,11.50
2019-02-21T06:31:16.874Z,12.60
2019-02-21T06:33:45.358Z,11.80
2019-02-21T06:36:13.855Z,11.67
2019-02-21T06:38:42.334Z,12.67
2019-02-21T06:41:10.917Z,12.27
2019-02-21T06:43:39.465Z,12.57
2019-02-21T06:46:08.024Z,10.87
2019-02-21T06:48:36.596Z,12.00
2019-02-21T06:51:05.152Z,11.17
2019-02-21T06:53:33.716Z,11.77
2019-02-21T06:56:02.200Z,11.53
2019-02-21T06:58:30.782Z,13.63
2019-02-21T07:00:59.312Z,12.20
2019-02-21T07:03:29.046Z,11.70
2019-02-21T07:05:57.643Z,13.93
2019-02-21T07:08:47.258Z,13.37
2019-02-21T07:11:15.716Z,13.13
2019-02-21T07:13:44.233Z,12.60
2019-02-21T07:16:13.271Z,12.37
2019-02-21T07:18:41.850Z,11.70
2019-02-21T07:21:10.438Z,11.03
2019-02-21T07:23:43.417Z,12.03
2019-02-21T07:26:09.220Z,12.20
2019-02-21T07:28:37.737Z,12.17
2019-02-21T07:31:06.211Z,13.37
2019-02-21T07:33:34.707Z,11.60
2019-02-21T07:36:03.281Z,13.67
2019-02-21T07:38:31.810Z,12.77
2019-02-21T07:41:00.458Z,13.13
2019-02-21T07:43:29.074Z,12.40
2019-02-21T07:45:57.589Z,13.43
2019-02-21T07:48:26.134Z,13.80
2019-02-21T07:50:54.753Z,12.37
2019-02-21T07:53:23.216Z,12.90
2019-02-21T07:55:51.793Z,12.57
2019-02-21T07:58:20.269Z,13.07
2019-02-21T08:00:48.750Z,13.10
2019-02-21T08:03:29.558Z,11.60
2019-02-21T08:05:47.445Z,13.53
2019-02-21T08:08:15.988Z,13.97
2019-02-21T08:10:44.541Z,12.47
2019-02-21T08:13:13.133Z,13.10
2019-02-21T08:15:41.671Z,13.50
2019-02-21T08:18:10.179Z,12.43
2019-02-21T08:20:41.076Z,13.47
2019-02-21T08:23:10.928Z,12.97
2019-02-21T08:25:39.207Z,12.20
2019-02-21T08:28:07.790Z,12.83
2019-02-21T08:30:36.351Z,12.63
2019-02-21T08:33:12.524Z,13.43
2019-02-21T08:35:41.050Z,13.13
2019-02-21T08:38:12.035Z,13.80
2019-02-21T08:40:39.785Z,15.60
2019-02-21T08:43:08.270Z,14.30
2019-02-21T08:45:36.753Z,12.63
2019-02-21T08:48:05.254Z,13.93
2019-02-21T08:50:33.741Z,14.03
2019-02-21T08:53:02.302Z,15.40
2019-02-21T08:55:30.865Z,12.73
2019-02-21T08:57:59.328Z,14.77
2019-02-21T09:00:27.899Z,16.60
2019-02-21T09:02:58.159Z,14.83
2019-02-21T09:05:26.725Z,14.13
2019-02-21T09:07:55.205Z,16.20
2019-02-21T09:10:23.849Z,15.47
2019-02-21T09:12:52.446Z,15.73
2019-02-21T09:15:20.928Z,16.17
2019-02-21T09:17:50.928Z,17.10
2019-02-21T09:20:19.412Z,16.53
2019-02-21T09:22:47.900Z,18.83
2019-02-21T09:25:16.490Z,19.07
2019-02-21T09:27:45.037Z,18.33
2019-02-21T09:30:17.998Z,19.63
2019-02-21T09:32:46.559Z,17.73
2019-02-21T09:35:15.023Z,16.90
2019-02-21T09:37:43.662Z,17.03
2019-02-21T09:40:14.444Z,17.80
2019-02-21T09:42:43.015Z,20.23
2019-02-21T09:45:17.028Z,21.70
2019-02-21T09:47:45.537Z,18.37
2019-02-21T09:50:14.256Z,19.60
2019-02-21T09:52:42.882Z,20.27
2019-02-21T09:55:18.161Z,19.37
2019-02-21T09:57:46.660Z,17.47
2019-02-21T10:00:17.642Z,22.37
2019-02-21T10:02:46.289Z,17.20
2019-02-21T10:05:14.893Z,18.10
2019-02-21T10:07:43.461Z,20.07
2019-02-21T10:10:14.333Z,19.37
2019-02-21T10:12:42.898Z,18.23
2019-02-21T10:15:15.850Z,18.13
2019-02-21T10:17:44.423Z,18.23
2019-02-21T10:20:20.454Z,20.10
2019-02-21T10:22:48.947Z,18.43
2019-02-21T10:25:23.277Z,21.23
2019-02-21T10:27:51.918Z,19.67
2019-02-21T10:30:22.324Z,19.50
2019-02-21T10:32:51.088Z,19.87
2019-02-21T10:35:19.654Z,20.30
2019-02-21T10:37:48.310Z,19.33
2019-02-21T10:40:17.146Z,18.17
2019-02-21T10:42:45.740Z,18.37
2019-02-21T10:45:17.665Z,17.97
2019-02-21T10:47:46.198Z,17.57
2019-02-21T10:50:16.541Z,19.73
2019-02-21T10:52:45.161Z,18.03
2019-02-21T10:55:14.167Z,14.47
2019-02-21T10:57:45.284Z,18.67
2019-02-21T11:00:22.016Z,17.67
2019-02-21T11:02:50.657Z,17.80
2019-02-21T11:05:19.202Z,17.20
2019-02-21T11:07:47.739Z,16.93
2019-02-21T11:10:28.264Z,17.07
2019-02-21T11:12:56.745Z,19.90
2019-02-21T11:15:25.967Z,19.07
2019-02-21T11:17:54.589Z,17.83
2019-02-21T11:20:23.201Z,16.83
2019-02-21T11:22:51.776Z,14.27
2019-02-21T11:25:20.257Z,17.00
2019-02-21T11:27:48.878Z,14.70
2019-02-21T11:30:19.341Z,15.80
2019-02-21T11:32:47.922Z,18.73
2019-02-21T11:35:16.550Z,17.20
2019-02-21T11:37:47.117Z,17.97
2019-02-21T11:40:16.721Z,18.30
2019-02-21T11:42:45.541Z,13.83
2019-02-21T11:45:16.339Z,16.70
2019-02-21T11:47:45.032Z,15.47
2019-02-21T11:50:15.530Z,13.80
2019-02-21T11:52:44.076Z,16.90
2019-02-21T11:55:18.101Z,13.67
2019-02-21T11:57:46.605Z,11.77
2019-02-21T12:00:20.469Z,13.70
2019-02-21T12:02:49.026Z,16.57
2019-02-21T12:05:19.557Z,11.70
2019-02-21T12:07:47.762Z,14.10
2019-02-21T12:10:16.229Z,12.20
2019-02-21T12:12:44.854Z,14.17
2019-02-21T12:15:14.831Z,12.80
2019-02-21T12:17:43.449Z,11.27
2019-02-21T12:20:14.601Z,12.37
2019-02-21T12:22:43.079Z,12.87
2019-02-21T12:25:14.001Z,11.73
2019-02-21T12:27:42.481Z,11.37
2019-02-21T12:30:18.427Z,13.97
2019-02-21T12:32:46.969Z,12.77
2019-02-21T12:35:15.622Z,12.03
2019-02-21T12:37:44.199Z,13.73
2019-02-21T12:40:15.717Z,12.40
2019-02-21T12:42:44.245Z,13.67
2019-02-21T12:45:15.189Z,14.40
2019-02-21T12:47:50.677Z,14.47
2019-02-21T12:50:14.153Z,14.90
2019-02-21T12:52:42.674Z,13.47
2019-02-21T12:55:11.693Z,13.37
2019-02-21T12:57:40.277Z,14.03
2019-02-21T13:00:17.070Z,12.80
2019-02-21T13:02:45.580Z,16.43
2019-02-21T13:05:14.115Z,13.73
2019-02-21T13:07:42.623Z,13.73
2019-02-21T13:10:13.837Z,13.73
2019-02-21T13:12:42.357Z,13.07
2019-02-21T13:15:12.944Z,13.93
2019-02-21T13:17:41.503Z,14.77
2019-02-21T13:20:14.283Z,13.73
2019-02-21T13:22:43.035Z,13.00
2019-02-21T13:25:16.671Z,14.73
2019-02-21T13:27:45.224Z,13.23
2019-02-21T13:30:17.533Z,11.77
2019-02-21T13:32:46.157Z,13.43
2019-02-21T13:35:14.867Z,14.90
2019-02-21T13:37:43.460Z,12.57
2019-02-21T13:40:16.590Z,11.83
2019-02-21T13:42:45.048Z,13.13
2019-02-21T13:45:18.120Z,12.90
2019-02-21T13:47:46.826Z,12.80
2019-02-21T13:50:17.011Z,14.50
2019-02-21T13:52:45.465Z,12.60
2019-02-21T13:55:14.383Z,13.23
2019-02-21T13:57:42.885Z,11.10
2019-02-21T14:00:14.061Z,13.20
2019-02-21T14:02:42.619Z,11.80
2019-02-21T14:05:11.244Z,13.57
2019-02-21T14:07:39.800Z,12.07
2019-02-21T14:10:10.626Z,12.00
2019-02-21T14:12:39.262Z,12.33
2019-02-21T14:15:19.930Z,13.63
2019-02-21T14:17:48.431Z,13.27
2019-02-21T14:20:16.974Z,13.00
2019-02-21T14:22:45.524Z,11.03
2019-02-21T14:25:14.059Z,11.80
2019-02-21T14:27:42.623Z,11.53
2019-02-21T14:30:14.009Z,10.90
2019-02-21T14:32:42.565Z,9.57
2019-02-21T14:35:12.408Z,10.80
2019-02-21T14:37:40.932Z,10.83
2019-02-21T14:40:12.529Z,10.40
2019-02-21T14:42:41.033Z,9.87
2019-02-21T14:45:15.158Z,11.80
2019-02-21T14:47:43.620Z,10.60
2019-02-21T14:50:12.757Z,10.67
2019-02-21T14:52:41.353Z,11.33
2019-02-21T14:55:12.092Z,12.23
2019-02-21T14:57:41.418Z,9.97
2019-02-21T15:00:23.888Z,9.67
2019-02-21T15:02:52.343Z,10.33
2019-02-21T15:05:20.886Z,9.57
2019-02-21T15:07:49.360Z,11.80
2019-02-21T15:10:17.919Z,12.13
2019-02-21T15:12:46.380Z,12.23
2019-02-21T15:15:17.596Z,10.03
2019-02-21T15:17:46.146Z,11.00
2019-02-21T15:20:16.182Z,15.73
2019-02-21T15:22:44.754Z,11.57
2019-02-21T15:25:13.350Z,10.80
2019-02-21T15:27:41.839Z,13.63
2019-02-21T15:30:21.373Z,11.80
2019-02-21T15:32:50.035Z,11.13
2019-02-21T15:35:19.630Z,12.57
2019-02-21T15:37:48.375Z,11.97
2019-02-21T15:40:16.906Z,12.57
2019-02-21T15:42:45.404Z,11.27
2019-02-21T15:45:25.395Z,12.40
2019-02-21T15:47:53.927Z,11.87
2019-02-21T15:50:22.510Z,12.30
2019-02-21T15:52:53.070Z,13.87
2019-02-21T15:55:22.469Z,11.10
2019-02-21T15:58:00.537Z,12.93
2019-02-21T16:00:22.564Z,11.03
2019-02-21T16:02:51.493Z,11.97
2019-02-21T16:05:20.022Z,12.70
2019-02-21T16:07:48.482Z,10.80
2019-02-21T16:10:20.063Z,11.33
2019-02-21T16:12:48.778Z,12.67
2019-02-21T16:15:17.992Z,12.60
2019-02-21T16:17:46.572Z,11.77
2019-02-21T16:20:16.655Z,12.90
2019-02-21T16:22:45.416Z,12.07
2019-02-21T16:25:16.691Z,10.57
2019-02-21T16:27:45.227Z,11.50
2019-02-21T16:30:14.013Z,13.23
2019-02-21T16:32:42.573Z,12.20
2019-02-21T16:35:12.865Z,11.23
2019-02-21T16:37:41.348Z,12.33
2019-02-21T16:40:12.172Z,14.43
2019-02-21T16:42:40.692Z,11.13
2019-02-21T16:45:22.820Z,11.93
2019-02-21T16:47:51.512Z,11.47
2019-02-21T16:50:29.412Z,10.17
2019-02-21T16:52:50.275Z,10.87
2019-02-21T16:55:20.875Z,12.33
2019-02-21T16:57:49.456Z,12.83
2019-02-21T17:00:22.331Z,11.37
2019-02-21T17:02:50.907Z,12.67
2019-02-21T17:05:19.636Z,10.97
2019-02-21T17:07:48.182Z,14.63
2019-02-21T17:10:17.182Z,11.53
2019-02-21T17:12:45.821Z,10.53
2019-02-21T17:15:16.102Z,10.50
2019-02-21T17:17:44.585Z,9.03
2019-02-21T17:20:23.456Z,13.53
2019-02-21T17:22:52.018Z,9.70
2019-02-21T17:25:20.552Z,11.67
2019-02-21T17:27:50.382Z,10.77
2019-02-21T17:30:19.458Z,10.90
2019-02-21T17:32:48.078Z,10.93
2019-02-21T17:35:16.839Z,11.17
2019-02-21T17:37:45.402Z,12.27
2019-02-21T17:40:16.684Z,11.97
2019-02-21T17:42:45.181Z,11.63
2019-02-21T17:45:13.739Z,13.43
2019-02-21T17:47:42.213Z,12.53
2019-02-21T17:50:15.773Z,13.17
2019-02-21T17:52:44.470Z,13.17
2019-02-21T17:55:13.364Z,15.67
2019-02-21T17:57:41.851Z,13.03
2019-02-21T18:00:25.415Z,14.20
2019-02-21T18:02:53.894Z,12.90
2019-02-21T18:05:22.520Z,13.00
2019-02-21T18:07:51.083Z,12.83
2019-02-21T18:10:19.663Z,12.13
2019-02-21T18:12:48.194Z,12.23
2019-02-21T18:15:17.727Z,13.73
2019-02-21T18:17:46.197Z,11.47
2019-02-21T18:20:15.493Z,14.40
2019-02-21T18:22:44.458Z,13.03
2019-02-21T18:25:41.655Z,13.23
2019-02-21T18:28:10.209Z,13.20
2019-02-21T18:30:38.904Z,11.87
2019-02-21T18:33:07.458Z,12.10
2019-02-21T18:35:36.026Z,12.67
2019-02-21T18:38:04.783Z,14.00
2019-02-21T18:40:33.270Z,16.63
2019-02-21T18:43:04.477Z,13.93
2019-02-21T18:45:32.977Z,12.87
2019-02-21T18:48:01.500Z,12.17
2019-02-21T18:50:37.751Z,12.87
2019-02-21T18:53:00.158Z,14.37
2019-02-21T18:55:28.745Z,11.87
2019-02-21T18:57:57.261Z,11.50
2019-02-21T19:00:27.007Z,14.70
2019-02-21T19:02:55.497Z,13.07
2019-02-21T19:05:34.935Z,12.47
2019-02-21T19:08:00.814Z,15.20
2019-02-21T19:10:24.627Z,13.60
2019-02-21T19:12:53.090Z,16.13
2019-02-21T19:15:22.007Z,13.87
2019-02-21T19:17:50.571Z,13.87
2019-02-21T19:20:20.586Z,12.97
2019-02-21T19:22:49.142Z,17.00
2019-02-21T19:25:17.935Z,14.60
2019-02-21T19:27:46.511Z,13.77
2019-02-21T19:30:34.436Z,11.57
2019-02-21T19:33:03.045Z,14.10
2019-02-21T19:35:31.783Z,13.87
2019-02-21T19:38:09.913Z,15.10
2019-02-21T19:40:30.592Z,13.10
2019-02-21T19:42:59.115Z,12.50
2019-02-21T19:45:27.810Z,13.67
2019-02-21T19:47:56.379Z,11.93
2019-02-21T19:50:24.986Z,11.17
2019-02-21T19:52:53.551Z,12.37
2019-02-21T19:55:22.129Z,13.57
2019-02-21T19:57:50.864Z,12.17
2019-02-21T20:00:22.581Z,12.23
2019-02-21T20:02:51.094Z,13.70
2019-02-21T20:05:19.630Z,11.93
2019-02-21T20:07:48.229Z,11.63
2019-02-21T20:10:17.001Z,14.07
2019-02-21T20:12:45.511Z,12.90
2019-02-21T20:15:14.422Z,12.23
2019-02-21T20:17:43.144Z,13.57
2019-02-21T20:20:23.240Z,14.23
2019-02-21T20:22:51.900Z,14.47
2019-02-21T20:25:20.477Z,13.20
2019-02-21T20:27:49.097Z,15.90
2019-02-21T20:30:20.864Z,12.90
2019-02-21T20:32:49.492Z,12.67
2019-02-21T20:35:18.082Z,14.40
2019-02-21T20:37:46.620Z,12.93
2019-02-21T20:40:15.357Z,15.13
2019-02-21T20:42:43.914Z,14.77
2019-02-21T20:45:14.274Z,12.87
2019-02-21T20:47:42.856Z,12.03
2019-02-21T20:50:12.661Z,13.10
2019-02-21T20:52:41.291Z,13.87
2019-02-21T20:55:11.102Z,13.17
2019-02-21T20:57:39.683Z,16.03
2019-02-21T21:00:11.400Z,13.90
2019-02-21T21:02:39.927Z,14.20
2019-02-21T21:05:08.668Z,14.13
2019-02-21T21:07:37.208Z,13.87
2019-02-21T21:10:09.276Z,15.73
2019-02-21T21:12:37.819Z,13.03
2019-02-21T21:15:09.545Z,14.83
2019-02-21T21:17:38.273Z,12.77
2019-02-21T21:20:16.377Z,17.40
2019-02-21T21:22:42.114Z,15.90
2019-02-21T21:25:15.213Z,15.70
2019-02-21T21:27:43.848Z,13.40
2019-02-21T21:30:14.300Z,15.20
2019-02-21T21:32:42.895Z,15.43
2019-02-21T21:35:11.672Z,13.47
2019-02-21T21:37:40.258Z,16.03
2019-02-21T21:40:12.022Z,14.37
2019-02-21T21:42:40.592Z,13.80
2019-02-21T21:45:14.471Z,18.20
2019-02-21T21:47:43.104Z,22.23
2019-02-21T21:50:14.421Z,18.47
2019-02-21T21:52:42.969Z,19.30
2019-02-21T21:55:11.602Z,20.17
2019-02-21T21:57:40.136Z,18.60
2019-02-21T22:00:11.692Z,15.33
2019-02-21T22:02:40.152Z,17.00
2019-02-21T22:05:09.522Z,16.90
2019-02-21T22:07:38.076Z,15.90
2019-02-21T22:10:12.660Z,15.13
2019-02-21T22:12:41.221Z,13.87
2019-02-21T22:15:12.702Z,15.27
2019-02-21T22:17:42.183Z,14.33
2019-02-21T22:20:10.949Z,14.70
2019-02-21T22:22:39.568Z,18.77
2019-02-21T22:25:10.576Z,15.73
2019-02-21T22:27:39.067Z,15.80
2019-02-21T22:30:20.575Z,19.43
2019-02-21T22:32:49.162Z,14.23
2019-02-21T22:35:17.648Z,16.90
2019-02-21T22:37:46.227Z,14.33
2019-02-21T22:40:19.499Z,16.87
2019-02-21T22:42:47.986Z,16.53
2019-02-21T22:45:16.533Z,17.53
2019-02-21T22:47:45.133Z,16.83
2019-02-21T22:50:17.617Z,19.63
2019-02-21T22:52:46.199Z,15.63
2019-02-21T22:55:14.798Z,15.73
2019-02-21T22:57:43.310Z,13.80
2019-02-21T23:00:30.987Z,17.03
2019-02-21T23:03:00.466Z,16.37
2019-02-21T23:05:54.422Z,17.13
2019-02-21T23:08:41.041Z,17.23
2019-02-21T23:11:09.509Z,17.73
2019-02-21T23:13:38.146Z,17.10
2019-02-21T23:16:06.832Z,15.47
2019-02-21T23:18:35.487Z,18.17
2019-02-21T23:21:04.158Z,18.03
2019-02-21T23:23:32.880Z,18.13
2019-02-21T23:26:01.450Z,19.80
2019-02-21T23:28:29.937Z,15.83
2019-02-21T23:30:58.507Z,18.33
2019-02-21T23:33:27.604Z,16.77
2019-02-21T23:35:56.115Z,17.60
2019-02-21T23:38:24.679Z,18.70
2019-02-21T23:40:53.175Z,21.87
2019-02-21T23:43:21.721Z,21.30
2019-02-21T23:45:50.295Z,27.03
2019-02-21T23:48:18.917Z,69.23
2019-02-21T23:50:47.459Z,78.73
2019-02-21T23:53:17.585Z,85.80
2019-02-21T23:55:46.170Z,61.07
2019-02-21T23:58:14.668Z,73.20
